createdAt,value
2019-05-26T00:02:15.823Z,79.06
2019-05-26T00:04:45.783Z,81.90
2019-05-26T00:07:29.761Z,81.46
2019-05-26T00:09:47.300Z,81.70
2019-05-26T00:12:17.342Z,82.29
2019-05-26T00:14:47.179Z,80.74
2019-05-26T00:17:17.149Z,80.13
2019-05-26T00:19:46.973Z,79.36
2019-05-26T00:22:16.818Z,79.70
2019-05-26T00:24:46.849Z,80.17
2019-05-26T00:27:16.739Z,81.61
2019-05-26T00:29:46.587Z,81.28
2019-05-26T00:32:16.499Z,81.27
2019-05-26T00:34:46.410Z,81.13
2019-05-26T00:37:17.294Z,81.36
2019-05-26T00:39:47.241Z,81.87
2019-05-26T00:42:17.403Z,81.93
2019-05-26T00:44:48.356Z,82.23
2019-05-26T00:47:18.343Z,82.43
2019-05-26T00:49:48.322Z,82.35
2019-05-26T00:52:18.310Z,81.83
2019-05-26T00:54:48.357Z,81.71
2019-05-26T00:57:18.232Z,80.80
2019-05-26T00:59:48.217Z,80.48
2019-05-26T01:02:18.106Z,80.45
2019-05-26T01:04:48.066Z,80.82
2019-05-26T01:07:18.016Z,80.67
2019-05-26T01:09:47.928Z,81.00
2019-05-26T01:12:17.926Z,80.47
2019-05-26T01:14:47.787Z,80.42
2019-05-26T01:17:17.619Z,80.25
2019-05-26T01:19:47.614Z,79.07
2019-05-26T01:22:17.528Z,78.93
2019-05-26T01:24:47.511Z,79.71
2019-05-26T01:27:17.323Z,78.79
2019-05-26T01:29:47.160Z,78.72
2019-05-26T01:32:17.061Z,79.05
2019-05-26T01:34:47.036Z,79.29
2019-05-26T01:37:17.284Z,78.82
2019-05-26T01:39:47.116Z,78.92
2019-05-26T01:42:17.040Z,78.94
2019-05-26T01:44:46.879Z,79.34
2019-05-26T01:47:16.720Z,78.32
2019-05-26T01:49:46.551Z,77.92
2019-05-26T01:52:16.504Z,77.94
2019-05-26T01:54:46.317Z,78.42
2019-05-26T01:57:16.215Z,78.93
2019-05-26T01:59:46.037Z,79.29
2019-05-26T02:02:15.874Z,79.25
2019-05-26T02:04:45.859Z,79.15
2019-05-26T02:07:15.783Z,78.24
2019-05-26T02:09:45.592Z,78.26
2019-05-26T02:12:15.433Z,78.47
2019-05-26T02:14:45.301Z,79.36
2019-05-26T02:17:15.312Z,79.51
2019-05-26T02:19:45.237Z,79.42
2019-05-26T02:22:15.198Z,79.07
2019-05-26T02:24:45.170Z,78.51
2019-05-26T02:27:15.133Z,78.58
2019-05-26T02:29:45.075Z,78.69
2019-05-26T02:32:15.949Z,78.77
2019-05-26T02:34:45.881Z,78.93
2019-05-26T02:37:15.854Z,78.33
2019-05-26T02:39:45.744Z,78.51
2019-05-26T02:42:15.701Z,77.92
2019-05-26T02:44:45.572Z,77.89
2019-05-26T02:47:15.546Z,78.74
2019-05-26T02:49:45.516Z,78.18
2019-05-26T02:52:15.493Z,78.37
2019-05-26T02:54:45.542Z,77.84
2019-05-26T02:57:15.417Z,78.27
2019-05-26T02:59:45.488Z,78.54
2019-05-26T03:02:15.663Z,78.76
2019-05-26T03:04:45.777Z,78.18
2019-05-26T03:07:16.348Z,78.45
2019-05-26T03:09:48.929Z,78.62
2019-05-26T03:12:21.253Z,78.55
2019-05-26T03:14:53.073Z,78.36
2019-05-26T03:17:24.871Z,78.01
2019-05-26T03:19:56.825Z,78.13
2019-05-26T03:22:28.657Z,77.92
2019-05-26T03:25:01.054Z,77.92
2019-05-26T03:27:30.969Z,78.07
2019-05-26T03:30:01.210Z,77.72
2019-05-26T03:32:31.237Z,77.51
2019-05-26T03:35:01.203Z,77.71
2019-05-26T03:37:31.071Z,77.32
2019-05-26T03:40:01.007Z,77.68
2019-05-26T03:42:31.000Z,77.93
2019-05-26T03:45:00.869Z,78.12
2019-05-26T03:47:30.729Z,77.68
2019-05-26T03:50:00.952Z,77.52
2019-05-26T03:52:30.873Z,77.94
2019-05-26T03:55:00.831Z,77.72
2019-05-26T03:57:30.765Z,78.04
2019-05-26T04:00:00.594Z,77.96
2019-05-26T04:02:31.744Z,77.65
2019-05-26T04:05:01.597Z,77.32
2019-05-26T04:07:31.428Z,77.23
2019-05-26T04:10:05.477Z,76.65
2019-05-26T04:12:32.981Z,76.41
2019-05-26T04:15:02.894Z,75.50
2019-05-26T04:17:32.720Z,74.98
2019-05-26T04:20:02.702Z,75.17
2019-05-26T04:22:32.606Z,75.71
2019-05-26T04:25:02.527Z,75.48
2019-05-26T04:27:33.572Z,75.57
2019-05-26T04:30:03.919Z,75.97
2019-05-26T04:32:33.828Z,76.06
2019-05-26T04:35:03.950Z,76.37
2019-05-26T04:37:33.946Z,76.53
2019-05-26T04:40:24.442Z,76.85
2019-05-26T04:42:35.613Z,76.42
2019-05-26T04:45:05.787Z,75.70
2019-05-26T04:47:35.694Z,75.46
2019-05-26T04:50:06.090Z,75.20
2019-05-26T04:52:36.116Z,76.07
2019-05-26T04:55:06.119Z,76.44
2019-05-26T04:57:36.017Z,76.17
2019-05-26T05:00:06.354Z,75.77
2019-05-26T05:02:36.380Z,75.87
2019-05-26T05:05:07.084Z,75.38
2019-05-26T05:07:36.991Z,74.67
2019-05-26T05:10:07.258Z,74.74
2019-05-26T05:12:37.153Z,74.61
2019-05-26T05:15:07.747Z,74.23
2019-05-26T05:17:37.689Z,73.65
2019-05-26T05:20:08.511Z,72.97
2019-05-26T05:22:38.467Z,74.12
2019-05-26T05:25:14.199Z,73.52
2019-05-26T05:27:40.208Z,73.21
2019-05-26T05:30:11.303Z,72.69
2019-05-26T05:32:41.298Z,72.51
2019-05-26T05:35:11.567Z,72.41
2019-05-26T05:37:41.468Z,73.06
2019-05-26T05:40:11.534Z,72.83
2019-05-26T05:42:41.717Z,72.27
2019-05-26T05:45:12.201Z,72.19
2019-05-26T05:47:42.125Z,71.30
2019-05-26T05:50:13.573Z,71.22
2019-05-26T05:52:43.512Z,71.37
2019-05-26T05:55:15.093Z,70.94
2019-05-26T05:57:44.952Z,70.95
2019-05-26T06:00:15.052Z,70.50
2019-05-26T06:02:44.897Z,70.21
2019-05-26T06:05:14.861Z,69.42
2019-05-26T06:07:44.711Z,69.17
2019-05-26T06:10:15.063Z,69.40
2019-05-26T06:12:44.978Z,69.17
2019-05-26T06:15:17.156Z,68.67
2019-05-26T06:17:47.628Z,68.23
2019-05-26T06:20:19.528Z,68.79
2019-05-26T06:22:50.058Z,67.89
2019-05-26T06:25:21.515Z,68.30
2019-05-26T06:27:51.370Z,67.77
2019-05-26T06:30:21.558Z,66.64
2019-05-26T06:32:51.484Z,66.73
2019-05-26T06:35:21.406Z,66.28
2019-05-26T06:37:51.315Z,66.48
2019-05-26T06:40:21.214Z,66.39
2019-05-26T06:42:51.116Z,67.07
2019-05-26T06:45:21.687Z,66.63
2019-05-26T06:47:51.519Z,66.76
2019-05-26T06:50:21.489Z,65.63
2019-05-26T06:52:51.400Z,66.73
2019-05-26T06:55:21.396Z,65.42
2019-05-26T06:57:51.305Z,64.43
2019-05-26T07:00:21.389Z,64.97
2019-05-26T07:02:51.411Z,64.03
2019-05-26T07:05:21.394Z,63.94
2019-05-26T07:07:51.326Z,64.01
2019-05-26T07:10:21.284Z,63.87
2019-05-26T07:12:51.210Z,63.76
2019-05-26T07:15:21.308Z,63.98
2019-05-26T07:17:51.312Z,64.07
2019-05-26T07:20:21.289Z,63.54
2019-05-26T07:22:51.264Z,63.81
2019-05-26T07:25:21.218Z,62.62
2019-05-26T07:27:52.138Z,64.84
2019-05-26T07:30:23.618Z,63.27
2019-05-26T07:32:53.681Z,62.72
2019-05-26T07:35:23.531Z,61.57
2019-05-26T07:37:53.455Z,61.81
2019-05-26T07:40:23.498Z,62.08
2019-05-26T07:42:54.460Z,61.23
2019-05-26T07:45:24.439Z,62.16
2019-05-26T07:47:54.352Z,61.56
2019-05-26T07:50:24.187Z,61.51
2019-05-26T07:52:54.013Z,60.44
2019-05-26T07:55:23.976Z,60.15
2019-05-26T07:57:53.980Z,60.17
2019-05-26T08:00:23.952Z,59.34
2019-05-26T08:02:54.281Z,59.60
2019-05-26T08:05:24.178Z,59.74
2019-05-26T08:08:09.591Z,59.35
2019-05-26T08:10:25.819Z,59.76
2019-05-26T08:12:55.743Z,61.18
2019-05-26T08:15:25.663Z,60.71
2019-05-26T08:17:55.664Z,60.49
2019-05-26T08:20:25.759Z,60.20
2019-05-26T08:22:55.689Z,59.83
2019-05-26T08:25:25.580Z,58.71
2019-05-26T08:27:55.621Z,58.26
2019-05-26T08:30:25.702Z,59.30
2019-05-26T08:32:55.541Z,58.56
2019-05-26T08:35:25.507Z,57.07
2019-05-26T08:37:55.368Z,59.20
2019-05-26T08:40:26.415Z,58.36
2019-05-26T08:42:56.434Z,58.36
2019-05-26T08:45:26.407Z,58.64
2019-05-26T08:47:56.409Z,57.64
2019-05-26T08:50:26.588Z,58.19
2019-05-26T08:52:56.568Z,58.38
2019-05-26T08:55:26.526Z,59.18
2019-05-26T08:57:56.390Z,58.03
2019-05-26T09:00:26.400Z,56.31
2019-05-26T09:02:56.575Z,56.94
2019-05-26T09:05:26.656Z,56.55
2019-05-26T09:07:56.553Z,56.57
2019-05-26T09:10:26.460Z,55.32
2019-05-26T09:13:01.129Z,53.51
2019-05-26T09:15:28.173Z,52.89
2019-05-26T09:17:58.065Z,53.73
2019-05-26T09:20:28.057Z,54.45
2019-05-26T09:22:57.872Z,53.53
2019-05-26T09:25:27.776Z,51.75
2019-05-26T09:27:57.668Z,50.96
2019-05-26T09:30:27.787Z,50.22
2019-05-26T09:32:57.651Z,46.90
2019-05-26T09:35:27.608Z,46.50
2019-05-26T09:37:57.516Z,47.41
2019-05-26T09:40:27.539Z,47.70
2019-05-26T09:42:57.338Z,49.82
2019-05-26T09:45:28.480Z,49.69
2019-05-26T09:47:58.744Z,49.89
2019-05-26T09:50:29.024Z,50.02
2019-05-26T09:52:59.893Z,49.08
2019-05-26T09:55:29.789Z,49.44
2019-05-26T09:57:59.685Z,49.46
2019-05-26T10:00:29.763Z,49.62
2019-05-26T10:03:00.070Z,48.89
2019-05-26T10:05:29.918Z,49.26
2019-05-26T10:07:59.849Z,49.35
2019-05-26T10:10:29.763Z,46.58
2019-05-26T10:12:59.674Z,48.67
2019-05-26T10:15:29.495Z,49.75
2019-05-26T10:17:59.427Z,47.68
2019-05-26T10:20:30.396Z,48.31
2019-05-26T10:23:00.348Z,48.10
2019-05-26T10:25:30.248Z,48.95
2019-05-26T10:28:00.079Z,47.03
2019-05-26T10:30:30.078Z,47.41
2019-05-26T10:33:00.012Z,46.50
2019-05-26T10:35:29.954Z,45.73
2019-05-26T10:37:59.930Z,47.06
2019-05-26T10:40:30.979Z,45.62
2019-05-26T10:43:00.956Z,43.66
2019-05-26T10:45:34.162Z,43.24
2019-05-26T10:48:02.671Z,42.26
2019-05-26T10:50:32.664Z,43.01
2019-05-26T10:53:02.745Z,42.81
2019-05-26T10:55:32.634Z,43.02
2019-05-26T10:58:02.537Z,42.94
2019-05-26T11:00:33.313Z,43.68
2019-05-26T11:03:03.321Z,43.84
2019-05-26T11:05:33.307Z,44.62
2019-05-26T11:08:03.281Z,44.56
2019-05-26T11:10:33.268Z,44.32
2019-05-26T11:13:04.327Z,43.93
2019-05-26T11:15:34.258Z,44.57
2019-05-26T11:18:04.279Z,44.34
2019-05-26T11:20:35.347Z,42.64
2019-05-26T11:23:05.422Z,45.37
2019-05-26T11:25:35.423Z,43.60
2019-05-26T11:28:05.535Z,41.90
2019-05-26T11:30:35.512Z,44.75
2019-05-26T11:33:05.556Z,44.66
2019-05-26T11:35:35.504Z,41.68
2019-05-26T11:38:05.543Z,41.04
2019-05-26T11:40:35.695Z,39.07
2019-05-26T11:43:16.395Z,38.92
2019-05-26T11:45:37.291Z,39.07
2019-05-26T11:48:07.264Z,39.08
2019-05-26T11:50:37.243Z,43.10
2019-05-26T11:53:07.163Z,43.88
2019-05-26T11:55:37.054Z,44.21
2019-05-26T11:58:07.001Z,44.49
2019-05-26T12:00:38.083Z,44.75
2019-05-26T12:03:08.074Z,45.77
2019-05-26T12:05:37.905Z,45.97
2019-05-26T12:08:07.869Z,46.00
2019-05-26T12:10:37.753Z,45.93
2019-05-26T12:13:07.723Z,46.86
2019-05-26T12:15:37.692Z,46.39
2019-05-26T12:18:07.681Z,45.90
2019-05-26T12:20:37.589Z,45.62
2019-05-26T12:23:07.561Z,44.56
2019-05-26T12:25:37.415Z,43.63
2019-05-26T12:28:07.381Z,41.93
2019-05-26T12:30:37.264Z,40.40
2019-05-26T12:33:07.160Z,40.87
2019-05-26T12:35:45.230Z,41.54
2019-05-26T12:38:15.498Z,41.64
2019-05-26T12:40:45.453Z,40.63
2019-05-26T12:43:16.526Z,41.77
2019-05-26T12:45:46.490Z,42.06
2019-05-26T12:48:16.389Z,41.55
2019-05-26T12:50:46.305Z,40.86
2019-05-26T12:53:16.290Z,40.85
2019-05-26T12:55:46.307Z,40.93
2019-05-26T12:58:16.307Z,41.54
2019-05-26T13:00:49.752Z,41.47
2019-05-26T13:03:17.934Z,40.79
2019-05-26T13:05:47.845Z,39.63
2019-05-26T13:08:17.807Z,40.37
2019-05-26T13:10:47.768Z,41.34
2019-05-26T13:13:17.753Z,37.80
2019-05-26T13:15:47.642Z,37.77
2019-05-26T13:18:17.611Z,37.23
2019-05-26T13:20:47.587Z,37.04
2019-05-26T13:23:17.475Z,39.38
2019-05-26T13:25:47.286Z,39.43
2019-05-26T13:28:17.135Z,37.22
2019-05-26T13:30:47.031Z,37.33
2019-05-26T13:33:17.008Z,36.50
2019-05-26T13:35:46.865Z,36.37
2019-05-26T13:38:16.867Z,35.82
2019-05-26T13:40:46.795Z,36.40
2019-05-26T13:43:16.699Z,36.44
2019-05-26T13:45:46.525Z,39.06
2019-05-26T13:48:17.496Z,36.61
2019-05-26T13:50:47.485Z,37.03
2019-05-26T13:53:17.480Z,36.31
2019-05-26T13:55:47.381Z,35.88
2019-05-26T13:58:17.358Z,37.15
2019-05-26T14:00:47.248Z,36.67
2019-05-26T14:03:17.069Z,36.60
2019-05-26T14:05:46.993Z,36.83
2019-05-26T14:08:16.812Z,36.18
2019-05-26T14:10:46.702Z,37.85
2019-05-26T14:13:16.592Z,37.47
2019-05-26T14:15:47.084Z,38.70
2019-05-26T14:18:18.193Z,37.53
2019-05-26T14:20:48.253Z,38.33
2019-05-26T14:23:18.240Z,37.66
2019-05-26T14:25:48.139Z,37.87
2019-05-26T14:28:18.153Z,37.92
2019-05-26T14:30:48.131Z,40.15
2019-05-26T14:33:18.034Z,38.21
2019-05-26T14:35:47.916Z,38.09
2019-05-26T14:38:18.877Z,37.10
2019-05-26T14:40:48.711Z,37.80
2019-05-26T14:43:18.608Z,37.40
2019-05-26T14:45:53.234Z,37.33
2019-05-26T14:48:20.218Z,38.06
2019-05-26T14:50:50.200Z,37.39
2019-05-26T14:53:20.134Z,37.99
2019-05-26T14:55:50.124Z,36.45
2019-05-26T14:58:20.064Z,37.12
2019-05-26T15:00:50.162Z,36.59
2019-05-26T15:03:20.080Z,37.50
2019-05-26T15:05:57.450Z,37.65
2019-05-26T15:08:21.645Z,36.83
2019-05-26T15:10:51.624Z,36.58
2019-05-26T15:13:21.529Z,36.91
2019-05-26T15:15:51.433Z,37.66
2019-05-26T15:18:21.393Z,38.32
2019-05-26T15:20:51.324Z,37.85
2019-05-26T15:23:21.245Z,37.81
2019-05-26T15:25:51.249Z,37.58
2019-05-26T15:28:21.205Z,39.23
2019-05-26T15:30:51.183Z,37.43
2019-05-26T15:33:21.019Z,36.56
2019-05-26T15:35:50.996Z,37.22
2019-05-26T15:38:20.832Z,36.49
2019-05-26T15:40:50.969Z,36.18
2019-05-26T15:43:20.823Z,34.67
2019-05-26T15:45:51.704Z,35.14
2019-05-26T15:48:21.652Z,35.22
2019-05-26T15:50:51.556Z,35.76
2019-05-26T15:53:21.461Z,36.13
2019-05-26T15:55:51.475Z,36.39
2019-05-26T15:58:21.445Z,35.06
2019-05-26T16:00:51.427Z,35.41
2019-05-26T16:03:21.374Z,35.74
2019-05-26T16:05:52.275Z,35.15
2019-05-26T16:08:22.242Z,35.42
2019-05-26T16:10:52.198Z,35.55
2019-05-26T16:13:22.027Z,36.28
2019-05-26T16:15:51.930Z,36.67
2019-05-26T16:18:21.912Z,36.72
2019-05-26T16:21:02.671Z,36.81
2019-05-26T16:23:23.586Z,37.92
2019-05-26T16:25:53.544Z,37.39
2019-05-26T16:28:23.437Z,37.12
2019-05-26T16:30:53.431Z,36.33
2019-05-26T16:33:23.534Z,36.05
2019-05-26T16:35:55.671Z,38.13
2019-05-26T16:38:25.246Z,38.43
2019-05-26T16:40:55.087Z,38.68
2019-05-26T16:43:24.932Z,38.64
2019-05-26T16:45:56.510Z,39.41
2019-05-26T16:48:26.855Z,39.59
2019-05-26T16:50:56.943Z,38.77
2019-05-26T16:53:26.992Z,37.80
2019-05-26T16:55:58.002Z,38.36
2019-05-26T16:58:28.113Z,38.64
2019-05-26T17:00:58.150Z,38.20
2019-05-26T17:03:28.272Z,38.87
2019-05-26T17:06:07.604Z,37.91
2019-05-26T17:08:30.005Z,36.93
2019-05-26T17:10:59.998Z,37.82
2019-05-26T17:13:32.989Z,38.11
2019-05-26T17:16:01.507Z,37.71
2019-05-26T17:18:31.499Z,37.17
2019-05-26T17:21:01.399Z,36.99
2019-05-26T17:23:31.366Z,36.90
2019-05-26T17:26:01.389Z,36.92
2019-05-26T17:28:31.283Z,36.11
2019-05-26T17:31:01.115Z,36.72
2019-05-26T17:33:31.006Z,36.44
2019-05-26T17:36:00.844Z,35.87
2019-05-26T17:38:30.827Z,33.49
2019-05-26T17:41:00.650Z,31.35
2019-05-26T17:43:30.475Z,31.00
2019-05-26T17:46:00.427Z,29.70
2019-05-26T17:48:30.272Z,30.20
2019-05-26T17:51:00.288Z,29.16
2019-05-26T17:53:30.198Z,28.90
2019-05-26T17:56:00.101Z,27.67
2019-05-26T17:58:30.023Z,27.93
2019-05-26T18:01:00.010Z,28.14
2019-05-26T18:03:30.780Z,28.36
2019-05-26T18:06:01.072Z,29.51
2019-05-26T18:08:31.023Z,30.30
2019-05-26T18:11:00.923Z,30.06
2019-05-26T18:13:30.874Z,30.84
2019-05-26T18:16:00.784Z,32.27
2019-05-26T18:18:30.748Z,35.00
2019-05-26T18:21:00.720Z,36.98
2019-05-26T18:23:30.623Z,38.69
2019-05-26T18:26:00.522Z,41.21
2019-05-26T18:28:30.553Z,42.22
2019-05-26T18:31:00.525Z,42.74
2019-05-26T18:33:30.429Z,43.83
2019-05-26T18:36:00.272Z,44.14
2019-05-26T18:38:30.184Z,45.78
2019-05-26T18:41:00.097Z,47.19
2019-05-26T18:43:30.003Z,48.77
2019-05-26T18:45:59.923Z,49.45
2019-05-26T18:48:29.762Z,50.92
2019-05-26T18:50:59.711Z,51.27
2019-05-26T18:53:30.023Z,52.05
2019-05-26T18:56:00.101Z,52.77
2019-05-26T18:58:29.912Z,53.27
2019-05-26T19:00:59.751Z,53.45
2019-05-26T19:03:29.671Z,53.68
2019-05-26T19:05:59.500Z,54.16
2019-05-26T19:08:29.578Z,54.74
2019-05-26T19:10:59.473Z,55.24
2019-05-26T19:13:29.518Z,55.54
2019-05-26T19:15:59.430Z,55.83
2019-05-26T19:18:29.266Z,56.21
2019-05-26T19:20:59.200Z,56.53
2019-05-26T19:23:29.118Z,56.53
2019-05-26T19:25:59.071Z,56.77
2019-05-26T19:28:29.040Z,56.75
2019-05-26T19:30:59.452Z,57.10
2019-05-26T19:33:29.455Z,57.53
2019-05-26T19:35:59.585Z,57.77
2019-05-26T19:38:29.689Z,58.11
2019-05-26T19:40:59.561Z,57.99
2019-05-26T19:43:29.556Z,58.12
2019-05-26T19:45:59.635Z,58.60
2019-05-26T19:48:36.690Z,58.87
2019-05-26T19:51:01.375Z,58.78
2019-05-26T19:53:31.204Z,58.98
2019-05-26T19:56:01.175Z,58.85
2019-05-26T19:58:31.065Z,58.85
2019-05-26T20:01:01.112Z,59.00
2019-05-26T20:03:31.114Z,58.99
2019-05-26T20:06:01.058Z,59.33
2019-05-26T20:08:32.039Z,59.39
2019-05-26T20:11:01.945Z,59.76
2019-05-26T20:13:31.925Z,59.91
2019-05-26T20:16:01.756Z,59.78
2019-05-26T20:18:31.798Z,60.22
2019-05-26T20:21:01.761Z,60.75
2019-05-26T20:23:31.733Z,61.29
2019-05-26T20:26:01.621Z,61.34
2019-05-26T20:28:31.484Z,61.32
2019-05-26T20:31:01.319Z,61.09
2019-05-26T20:33:31.134Z,61.06
2019-05-26T20:36:01.041Z,61.07
2019-05-26T20:38:30.944Z,61.43
2019-05-26T20:41:00.855Z,61.60
2019-05-26T20:43:31.848Z,61.71
2019-05-26T20:46:01.959Z,61.98
2019-05-26T20:48:31.962Z,62.07
2019-05-26T20:51:01.859Z,61.67
2019-05-26T20:53:31.968Z,62.34
2019-05-26T20:56:01.798Z,62.71
2019-05-26T20:58:31.771Z,63.04
2019-05-26T21:01:01.745Z,63.48
2019-05-26T21:03:31.602Z,63.55
2019-05-26T21:06:01.581Z,63.88
2019-05-26T21:08:31.466Z,64.17
2019-05-26T21:11:01.619Z,64.03
2019-05-26T21:13:31.572Z,64.66
2019-05-26T21:16:01.614Z,64.97
2019-05-26T21:18:31.454Z,64.94
2019-05-26T21:21:01.483Z,64.44
2019-05-26T21:23:31.323Z,63.59
2019-05-26T21:26:01.319Z,62.76
2019-05-26T21:28:31.272Z,62.59
2019-05-26T21:31:01.131Z,62.51
2019-05-26T21:33:30.985Z,63.28
2019-05-26T21:36:00.896Z,62.45
2019-05-26T21:38:32.083Z,61.73
2019-05-26T21:41:02.010Z,62.38
2019-05-26T21:43:31.974Z,62.49
2019-05-26T21:46:01.817Z,62.40
2019-05-26T21:48:34.706Z,62.41
2019-05-26T21:51:03.464Z,62.61
2019-05-26T21:53:33.351Z,62.05
2019-05-26T21:56:03.155Z,61.38
2019-05-26T21:58:33.125Z,61.84
2019-05-26T22:01:03.239Z,63.75
2019-05-26T22:03:33.210Z,64.85
2019-05-26T22:06:03.200Z,65.50
2019-05-26T22:08:33.171Z,66.25
2019-05-26T22:11:03.066Z,66.35
2019-05-26T22:13:33.021Z,66.20
2019-05-26T22:16:02.921Z,66.11
2019-05-26T22:18:32.870Z,65.50
2019-05-26T22:21:02.795Z,65.61
2019-05-26T22:23:32.651Z,65.73
2019-05-26T22:26:02.546Z,65.42
2019-05-26T22:28:32.462Z,65.29
2019-05-26T22:31:02.425Z,65.84
2019-05-26T22:33:32.339Z,65.79
2019-05-26T22:36:02.229Z,65.68
2019-05-26T22:38:32.160Z,65.97
2019-05-26T22:41:01.993Z,65.71
2019-05-26T22:43:31.958Z,65.44
2019-05-26T22:46:01.868Z,65.27
2019-05-26T22:48:31.740Z,65.52
2019-05-26T22:51:01.656Z,65.49
2019-05-26T22:53:31.506Z,65.86
2019-05-26T22:56:01.491Z,66.12
2019-05-26T22:58:31.336Z,66.31
2019-05-26T23:01:01.327Z,66.51
2019-05-26T23:03:31.327Z,66.85
2019-05-26T23:06:01.142Z,66.87
2019-05-26T23:08:32.418Z,66.65
2019-05-26T23:11:02.382Z,66.92
2019-05-26T23:13:32.203Z,66.66
2019-05-26T23:16:02.191Z,66.63
2019-05-26T23:18:32.112Z,66.59
2019-05-26T23:21:02.020Z,66.44
2019-05-26T23:23:31.855Z,66.07
2019-05-26T23:26:01.757Z,66.06
2019-05-26T23:28:31.717Z,66.08
2019-05-26T23:31:01.546Z,66.21
2019-05-26T23:33:31.362Z,65.74
2019-05-26T23:36:01.250Z,65.40
2019-05-26T23:38:31.157Z,65.31
2019-05-26T23:41:01.051Z,65.67
2019-05-26T23:43:30.958Z,65.68
2019-05-26T23:46:00.888Z,65.83
2019-05-26T23:48:30.837Z,66.27
2019-05-26T23:51:00.768Z,66.47
2019-05-26T23:53:30.660Z,66.62
2019-05-26T23:56:00.557Z,66.47
2019-05-26T23:58:30.502Z,66.22
